Time;durP1;ratioP1;P1;durP2;ratioP2;P2;SDS_P1;SDS_P2;PMS_P1;PMS_P2;Temp;Humidity;BMP_temperature;BMP_pressure;BME280_temperature;BME280_humidity;BME280_pressure;Samples;Min_cycle;Max_cycle;Signal;HPM_P1;HPM_P2
2022/04/12 00:01:54;;;;;;;0.10;0.10;;;;;;;11.92;51.24;101140.88;5015674;28;20033;-80
2022/04/12 00:04:23;;;;;;;0.10;0.10;;;;;;;11.90;51.01;101153.31;4997725;28;20037;-79
2022/04/12 00:06:49;;;;;;;0.00;0.00;;;;;;;11.93;51.08;101153.25;5016437;28;20063;-80
2022/04/12 00:09:15;;;;;;;0.10;0.10;;;;;;;11.93;50.44;101158.56;5028502;28;20524;-80
2022/04/12 00:11:42;;;;;;;0.03;0.03;;;;;;;12.00;50.45;101158.47;5010638;28;20064;-79
2022/04/12 00:14:08;;;;;;;0.00;0.00;;;;;;;12.01;50.44;101155.75;5012913;28;20032;-80
2022/04/12 00:16:34;;;;;;;0.20;0.20;;;;;;;12.03;50.39;101164.59;5007838;28;20117;-80
2022/04/12 00:19:03;;;;;;;0.10;0.10;;;;;;;12.06;50.67;101160.97;5014348;28;20396;-79
2022/04/12 00:21:34;;;;;;;0.10;0.10;;;;;;;12.09;50.33;101168.91;5005806;28;20496;-80
2022/04/12 00:24:03;;;;;;;0.20;0.20;;;;;;;12.08;50.36;101177.78;5011371;28;20037;-80
2022/04/12 00:26:29;;;;;;;0.10;0.10;;;;;;;12.08;50.18;101173.31;5002822;28;20030;-80
2022/04/12 00:28:55;;;;;;;0.22;0.22;;;;;;;12.05;50.08;101168.09;5014635;28;20021;-80
2022/04/12 00:31:22;;;;;;;0.10;0.10;;;;;;;12.05;50.27;101172.50;5007590;28;20052;-80
2022/04/12 00:33:48;;;;;;;0.10;0.10;;;;;;;12.06;49.89;101168.94;5004837;28;20026;-80
2022/04/12 00:36:14;;;;;;;0.10;0.10;;;;;;;12.04;49.98;101171.66;5011255;28;20024;-80
2022/04/12 00:38:41;;;;;;;0.10;0.10;;;;;;;12.04;49.82;101182.28;5020961;28;20080;-80
2022/04/12 00:41:08;;;;;;;0.20;0.20;;;;;;;12.02;50.22;101172.59;5010297;28;20025;-80
2022/04/12 00:43:37;;;;;;;0.10;0.10;;;;;;;11.98;49.58;101167.31;5012214;28;20462;-80
2022/04/12 00:46:04;;;;;;;0.40;0.40;;;;;;;11.94;49.77;101164.75;5015751;28;20077;-80
2022/04/12 00:48:31;;;;;;;0.00;0.00;;;;;;;11.90;50.05;101174.56;5015190;28;20500;-79
2022/04/12 00:50:58;;;;;;;0.10;0.10;;;;;;;11.87;49.53;101173.75;5010965;28;20042;-81
2022/04/12 00:53:26;;;;;;;0.10;0.10;;;;;;;11.84;49.78;101180.00;5014530;28;20041;-80
2022/04/12 00:55:52;;;;;;;0.00;0.00;;;;;;;11.81;49.90;101170.31;5024266;28;20034;-79
2022/04/12 00:58:19;;;;;;;0.10;0.10;;;;;;;11.80;49.98;101170.31;5028015;28;20030;-79
2022/04/12 01:00:48;;;;;;;0.10;0.10;;;;;;;11.77;50.27;101167.75;5008693;28;20116;-80
2022/04/12 01:03:15;;;;;;;0.03;0.03;;;;;;;11.76;50.10;101171.28;5008033;28;20026;-81
2022/04/12 01:05:42;;;;;;;0.22;0.22;;;;;;;11.74;50.16;101167.78;5010213;28;20022;-81
2022/04/12 01:08:08;;;;;;;1.40;0.40;;;;;;;11.70;50.70;101164.34;5019099;28;21094;-79
2022/04/12 01:10:37;;;;;;;0.00;0.00;;;;;;;11.69;50.04;101156.38;5015560;28;20096;-80
2022/04/12 01:13:04;;;;;;;0.10;0.10;;;;;;;11.65;50.15;101155.56;5018869;28;20033;-79
2022/04/12 01:15:30;;;;;;;0.10;0.10;;;;;;;11.58;51.19;101165.44;5015560;28;20050;-80
2022/04/12 01:17:57;;;;;;;0.10;0.10;;;;;;;11.54;51.06;101155.78;5015143;28;20077;-80
2022/04/12 01:20:25;;;;;;;0.10;0.10;;;;;;;11.51;50.57;101155.84;5012352;28;20030;-80
2022/04/12 01:25:30;;;;;;;0.10;0.10;;;;;;;11.43;51.14;101153.34;5135669;27;20796;-81
2022/04/12 01:27:57;;;;;;;0.03;0.03;;;;;;;11.38;51.18;101149.91;5136473;27;20050;-81
2022/04/12 01:30:23;;;;;;;0.10;0.10;;;;;;;11.33;51.48;101157.94;5134847;27;20045;-81
2022/04/12 01:32:49;;;;;;;0.10;0.10;;;;;;;11.28;51.48;101154.50;5136103;28;20043;-81
2022/04/12 01:35:15;;;;;;;0.05;0.05;;;;;;;11.24;51.96;101158.09;5113993;22;20046;-76
2022/04/12 01:37:41;;;;;;;0.15;0.15;;;;;;;11.18;51.57;101152.91;5048898;28;20444;-76
2022/04/12 01:40:09;;;;;;;0.00;0.00;;;;;;;11.13;52.05;101155.63;5060670;28;20480;-76
2022/04/12 01:42:37;;;;;;;0.20;0.20;;;;;;;11.07;52.18;101155.75;5060955;28;20119;-76
2022/04/12 01:45:04;;;;;;;0.10;0.10;;;;;;;11.02;52.14;101151.44;5067942;28;20122;-75
2022/04/12 01:47:30;;;;;;;0.10;0.10;;;;;;;10.98;52.29;101151.47;5052220;28;20043;-76
2022/04/12 01:49:56;;;;;;;0.00;0.00;;;;;;;10.92;53.01;101148.91;5066604;28;20025;-75
2022/04/12 01:52:22;;;;;;;0.10;0.10;;;;;;;10.88;52.46;101143.69;5063704;28;20025;-76
2022/04/12 01:54:49;;;;;;;0.10;0.10;;;;;;;10.83;52.84;101138.47;5065699;28;20160;-76
2022/04/12 01:57:15;;;;;;;0.30;0.30;;;;;;;10.79;52.91;101145.59;5063740;28;20094;-76
2022/04/12 01:59:42;;;;;;;0.10;0.10;;;;;;;10.75;52.49;101148.31;5066882;28;20604;-76
2022/04/12 02:02:09;;;;;;;0.10;0.10;;;;;;;10.70;52.73;101150.16;5064699;28;20395;-76
2022/04/12 02:04:35;;;;;;;0.10;0.10;;;;;;;10.65;52.91;101148.47;5060659;28;20097;-76
2022/04/12 02:07:01;;;;;;;0.08;0.08;;;;;;;10.61;53.75;101153.84;5065595;28;20037;-76
2022/04/12 02:09:27;;;;;;;0.10;0.10;;;;;;;10.57;53.42;101149.50;5070896;28;20066;-76
2022/04/12 02:11:55;;;;;;;0.13;0.13;;;;;;;10.52;53.12;101141.59;5069614;28;20036;-76
2022/04/12 02:14:21;;;;;;;0.20;0.20;;;;;;;10.49;53.56;101136.34;5057494;28;20036;-76
2022/04/12 02:16:48;;;;;;;0.10;0.10;;;;;;;10.44;53.76;101135.53;5064341;28;20404;-76
2022/04/12 02:19:14;;;;;;;0.10;0.10;;;;;;;10.39;53.67;101140.88;5064275;28;20036;-76
2022/04/12 02:21:40;;;;;;;0.00;0.00;;;;;;;10.35;54.02;101132.09;5067910;28;20499;-75
2022/04/12 02:24:07;;;;;;;0.10;0.10;;;;;;;10.31;53.65;101133.03;5064009;28;20111;-76
2022/04/12 02:26:33;;;;;;;0.10;0.10;;;;;;;10.29;53.82;101133.94;5061952;28;20021;-76
2022/04/12 02:28:59;;;;;;;0.08;0.08;;;;;;;10.25;53.71;101133.13;5068365;28;20036;-76
2022/04/12 02:31:25;;;;;;;0.00;0.00;;;;;;;10.18;53.84;101134.09;5063261;28;20028;-76
2022/04/12 02:33:51;;;;;;;0.10;0.10;;;;;;;10.14;54.29;101129.75;5067646;28;20095;-76
2022/04/12 02:36:17;;;;;;;0.10;0.10;;;;;;;10.10;55.02;101117.44;5067616;28;20127;-76
2022/04/12 02:38:44;;;;;;;0.10;0.10;;;;;;;10.04;54.72;101116.66;5055057;28;20063;-76
2022/04/12 02:41:10;;;;;;;0.10;0.10;;;;;;;10.00;54.69;101114.91;5048275;28;20084;-76
2022/04/12 02:43:36;;;;;;;1.25;1.25;;;;;;;9.97;54.48;101106.13;5052534;28;20028;-76
2022/04/12 02:46:02;;;;;;;0.10;0.10;;;;;;;9.92;55.30;101114.16;5058761;28;20036;-76
2022/04/12 02:48:29;;;;;;;0.10;0.10;;;;;;;9.88;54.43;101117.72;5050050;28;20539;-76
2022/04/12 02:50:55;;;;;;;0.10;0.10;;;;;;;9.85;54.00;101113.34;5049319;28;20044;-75
2022/04/12 02:53:21;;;;;;;0.38;0.38;;;;;;;9.81;55.18;101092.25;5060178;28;20973;-75
2022/04/12 02:55:47;;;;;;;0.10;0.10;;;;;;;9.78;54.62;101087.88;5071114;28;20031;-76
2022/04/12 02:58:13;;;;;;;0.10;0.10;;;;;;;9.77;54.68;101082.56;5067506;28;20045;-76
2022/04/12 03:00:39;;;;;;;0.10;0.10;;;;;;;9.74;54.88;101085.28;5052699;28;20510;-76
2022/04/12 03:03:05;;;;;;;0.40;0.32;;;;;;;9.71;54.79;101087.06;5050352;28;20443;-76
2022/04/12 03:05:31;;;;;;;0.20;0.20;;;;;;;9.66;54.78;101085.38;5047761;28;20033;-76
2022/04/12 03:07:57;;;;;;;0.10;0.10;;;;;;;9.64;54.75;101082.72;5055532;28;20091;-76
2022/04/12 03:10:23;;;;;;;0.10;0.10;;;;;;;9.62;54.71;101073.97;5054371;28;20116;-76
2022/04/12 03:12:50;;;;;;;0.10;0.10;;;;;;;9.58;55.97;101066.94;5055333;28;20036;-76
2022/04/12 03:15:16;;;;;;;1.08;0.57;;;;;;;9.60;54.89;101065.16;5051883;28;20017;-76
2022/04/12 03:17:42;;;;;;;0.10;0.10;;;;;;;9.62;54.85;101066.03;5045393;28;20103;-76
2022/04/12 03:20:09;;;;;;;0.40;0.40;;;;;;;9.64;55.57;101076.56;5049569;28;20032;-76
2022/04/12 03:22:35;;;;;;;0.52;0.52;;;;;;;9.64;54.44;101072.16;5051214;28;20090;-76
2022/04/12 03:25:02;;;;;;;0.10;0.10;;;;;;;9.63;54.31;101075.72;5052916;28;20503;-76
2022/04/12 03:27:28;;;;;;;0.10;0.10;;;;;;;9.59;55.05;101068.69;5053173;28;20476;-76
2022/04/12 03:29:54;;;;;;;0.10;0.10;;;;;;;9.57;54.58;101065.22;5053263;28;20032;-76
2022/04/12 03:32:20;;;;;;;0.10;0.10;;;;;;;9.55;55.01;101073.13;5048589;28;20504;-76
2022/04/12 03:34:46;;;;;;;0.10;0.10;;;;;;;9.55;54.82;101070.50;5047062;28;20055;-76
2022/04/12 03:37:14;;;;;;;0.03;0.03;;;;;;;9.52;55.42;101075.84;5052594;28;20029;-76
2022/04/12 03:39:42;;;;;;;0.10;0.10;;;;;;;9.53;55.48;101074.06;5050938;28;20484;-76
2022/04/12 03:42:11;;;;;;;0.10;0.10;;;;;;;9.54;55.04;101079.34;5050014;28;20033;-76
2022/04/12 03:44:38;;;;;;;0.10;0.10;;;;;;;9.57;55.54;101089.00;5047992;28;20021;-76
2022/04/12 03:47:04;;;;;;;0.10;0.10;;;;;;;9.60;55.15;101086.31;5041220;28;20042;-76
2022/04/12 03:49:30;;;;;;;0.10;0.10;;;;;;;9.67;55.23;101082.72;5052050;28;20031;-76
2022/04/12 03:51:56;;;;;;;0.00;0.00;;;;;;;9.71;55.76;101075.59;5050126;28;20028;-76
2022/04/12 03:54:22;;;;;;;0.10;0.10;;;;;;;9.78;55.20;101077.28;5047910;28;20028;-76
2022/04/12 03:56:48;;;;;;;0.10;0.10;;;;;;;9.82;55.29;101073.69;5051066;28;20037;-76
2022/04/12 03:59:15;;;;;;;0.10;0.10;;;;;;;9.86;55.35;101079.84;5047901;28;20029;-76
2022/04/12 04:01:41;;;;;;;0.10;0.10;;;;;;;9.90;55.36;101078.88;5052557;28;20125;-76
2022/04/12 04:04:07;;;;;;;0.08;0.08;;;;;;;9.92;54.96;101094.72;5045896;28;20477;-76
2022/04/12 04:06:33;;;;;;;0.10;0.10;;;;;;;9.91;55.06;101101.81;5051427;28;20068;-76
2022/04/12 04:08:59;;;;;;;0.10;0.10;;;;;;;9.88;55.01;101108.03;5052317;28;20036;-76
2022/04/12 04:11:25;;;;;;;0.10;0.10;;;;;;;9.87;55.34;101116.00;5049616;28;20043;-76
2022/04/12 04:13:51;;;;;;;0.10;0.10;;;;;;;9.87;54.64;101108.06;5043370;28;20099;-76
2022/04/12 04:16:17;;;;;;;0.00;0.00;;;;;;;9.85;55.09;101112.47;5047862;28;20017;-76
2022/04/12 04:18:44;;;;;;;0.10;0.10;;;;;;;9.85;54.45;101120.41;5052169;28;20082;-76
2022/04/12 04:21:10;;;;;;;0.10;0.10;;;;;;;9.83;55.07;101109.84;5052375;28;20453;-75
2022/04/12 04:23:36;;;;;;;0.10;0.10;;;;;;;9.83;54.58;101111.59;5042579;28;20026;-76
2022/04/12 04:26:02;;;;;;;0.05;0.05;;;;;;;9.82;54.68;101107.19;5051419;28;20029;-76
2022/04/12 04:28:30;;;;;;;0.10;0.10;;;;;;;9.82;54.28;101099.25;5050148;28;20033;-76
2022/04/12 04:30:56;;;;;;;0.10;0.10;;;;;;;9.82;54.38;101107.19;5038044;28;20409;-76
2022/04/12 04:33:22;;;;;;;0.10;0.10;;;;;;;9.82;54.47;101093.97;5071945;28;20027;-75
2022/04/12 04:35:51;;;;;;;0.10;0.10;;;;;;;9.83;54.21;101087.78;5074052;28;20036;-76
2022/04/12 04:38:17;;;;;;;0.10;0.10;;;;;;;9.83;54.41;101074.56;5073973;28;20025;-75
2022/04/12 04:40:44;;;;;;;0.22;0.22;;;;;;;9.80;54.43;101067.53;5070216;28;20060;-76
2022/04/12 04:43:10;;;;;;;0.10;0.10;;;;;;;9.78;54.63;101068.47;5059693;28;20032;-76
2022/04/12 04:45:37;;;;;;;0.10;0.10;;;;;;;9.77;54.52;101067.59;5041446;28;20029;-76
2022/04/12 04:48:04;;;;;;;0.10;0.10;;;;;;;9.69;55.18;101061.50;5034530;28;20029;-76
2022/04/12 04:50:33;;;;;;;0.10;0.10;;;;;;;9.67;54.88;101061.53;5049100;28;20036;-76
2022/04/12 04:53:00;;;;;;;0.25;0.25;;;;;;;9.66;54.75;101062.44;5045367;28;20053;-77
2022/04/12 04:55:26;;;;;;;0.73;0.73;;;;;;;9.64;55.61;101061.56;5048246;28;20029;-77
2022/04/12 04:57:55;;;;;;;0.10;0.10;;;;;;;9.63;54.82;101065.13;5046710;28;20048;-77
2022/04/12 05:00:25;;;;;;;0.05;0.05;;;;;;;9.59;55.16;101068.69;5048472;28;20427;-77
2022/04/12 05:02:53;;;;;;;0.10;0.10;;;;;;;9.52;56.30;101059.06;5045735;28;20112;-77
2022/04/12 05:05:21;;;;;;;0.10;0.10;;;;;;;9.51;55.04;101055.56;5043897;28;20086;-77
2022/04/12 05:07:49;;;;;;;0.10;0.10;;;;;;;9.46;56.18;101060.03;5043333;28;20039;-77
2022/04/12 05:10:18;;;;;;;0.85;0.85;;;;;;;9.48;56.00;101065.31;5049472;28;20104;-77
2022/04/12 05:12:45;;;;;;;0.10;0.10;;;;;;;9.48;55.34;101055.63;5054852;28;20479;-77
2022/04/12 05:15:12;;;;;;;0.45;0.45;;;;;;;9.49;55.44;101061.75;5061865;28;20350;-77
2022/04/12 05:17:38;;;;;;;0.10;0.10;;;;;;;9.49;55.28;101067.91;5046294;28;20051;-77
2022/04/12 05:20:07;;;;;;;0.20;0.20;;;;;;;9.53;55.22;101060.81;5044697;28;20052;-77
2022/04/12 05:22:33;;;;;;;0.10;0.10;;;;;;;9.52;55.28;101057.31;5042868;28;20541;-77
2022/04/12 05:24:59;;;;;;;0.20;0.20;;;;;;;9.54;55.24;101062.59;5045710;28;20032;-77
2022/04/12 05:27:31;;;;;;;0.00;0.00;;;;;;;9.55;55.08;101062.56;5044690;28;20037;-77
2022/04/12 05:29:59;;;;;;;0.10;0.10;;;;;;;9.58;54.79;101077.50;5045041;28;20022;-77
2022/04/12 05:32:25;;;;;;;0.10;0.10;;;;;;;9.60;54.93;101081.03;5041910;28;20033;-77
2022/04/12 05:34:52;;;;;;;0.10;0.10;;;;;;;9.58;55.65;101072.22;5043969;28;20123;-77
2022/04/12 05:37:18;;;;;;;0.13;0.13;;;;;;;9.62;55.91;101078.34;5046360;28;20060;-77
2022/04/12 05:39:44;;;;;;;1.42;1.33;;;;;;;9.63;55.37;101082.75;5038796;28;20036;-77
2022/04/12 05:42:11;;;;;;;0.08;0.08;;;;;;;9.67;54.90;101087.09;5043762;28;20041;-77
2022/04/12 05:44:37;;;;;;;0.00;0.00;;;;;;;9.69;55.26;101086.22;5042554;28;20021;-77
2022/04/12 05:47:04;;;;;;;0.30;0.30;;;;;;;9.74;55.44;101103.81;5045333;28;20041;-77
2022/04/12 05:49:31;;;;;;;0.08;0.08;;;;;;;9.75;55.84;101101.13;5047531;28;20029;-77
2022/04/12 05:51:57;;;;;;;0.10;0.10;;;;;;;9.78;56.04;101100.22;5047133;28;20524;-77
2022/04/12 05:54:24;;;;;;;0.10;0.10;;;;;;;9.82;55.22;101093.97;5047538;28;20029;-77
2022/04/12 05:56:51;;;;;;;0.35;0.30;;;;;;;9.83;55.88;101087.78;5047225;28;20048;-77
2022/04/12 05:59:17;;;;;;;0.10;0.10;;;;;;;9.88;55.86;101091.25;5051038;28;20152;-77
2022/04/12 06:01:43;;;;;;;0.10;0.10;;;;;;;9.90;55.86;101086.81;5044845;28;20412;-76
2022/04/12 06:04:10;;;;;;;0.10;0.10;;;;;;;9.93;55.88;101086.78;5048147;28;20035;-77
2022/04/12 06:06:36;;;;;;;0.00;0.00;;;;;;;10.01;55.46;101092.84;5045396;28;20033;-80
2022/04/12 06:09:03;;;;;;;0.00;0.00;;;;;;;10.10;55.61;101083.03;5043542;28;20384;-77
2022/04/12 06:11:30;;;;;;;0.00;0.00;;;;;;;10.16;55.65;101080.31;5051620;28;20500;-77
2022/04/12 06:13:56;;;;;;;0.10;0.10;;;;;;;10.27;55.04;101086.31;5055325;28;20021;-77
2022/04/12 06:16:22;;;;;;;0.20;0.20;;;;;;;10.34;55.24;101079.13;5074493;28;20063;-77
2022/04/12 06:18:48;;;;;;;0.10;0.10;;;;;;;10.38;55.43;101075.59;5075219;28;20024;-77
2022/04/12 06:21:14;;;;;;;0.20;0.20;;;;;;;10.56;54.96;101081.50;5058551;28;20452;-77
2022/04/12 06:23:40;;;;;;;0.50;0.50;;;;;;;10.65;54.97;101068.97;5055262;28;20186;-77
2022/04/12 06:26:06;;;;;;;0.00;0.00;;;;;;;10.75;54.98;101068.81;5052817;28;20045;-77
2022/04/12 06:28:33;;;;;;;0.20;0.20;;;;;;;10.83;54.62;101064.25;5049373;28;20033;-77
2022/04/12 06:30:59;;;;;;;0.10;0.10;;;;;;;10.92;54.70;101072.03;5053766;28;20320;-77
2022/04/12 06:33:26;;;;;;;0.10;0.10;;;;;;;11.03;54.30;101063.91;5050511;28;20392;-77
2022/04/12 06:35:53;;;;;;;0.10;0.10;;;;;;;11.15;53.73;101062.78;5053437;28;20447;-77
2022/04/12 06:38:19;;;;;;;0.10;0.10;;;;;;;11.25;53.70;101074.09;5054299;28;20374;-77
2022/04/12 06:40:46;;;;;;;0.30;0.30;;;;;;;11.33;53.40;101075.69;5053670;28;20039;-77
2022/04/12 06:43:12;;;;;;;0.10;0.10;;;;;;;11.39;53.93;101071.16;5053949;28;20454;-77
2022/04/12 06:45:39;;;;;;;0.08;0.08;;;;;;;11.44;53.68;101072.84;5053951;28;20044;-77
2022/04/12 06:48:05;;;;;;;0.20;0.20;;;;;;;11.56;53.08;101079.66;5053159;28;20044;-77
2022/04/12 06:50:32;;;;;;;0.10;0.10;;;;;;;11.61;53.50;101088.44;5052089;28;20033;-77
2022/04/12 06:52:58;;;;;;;0.03;0.03;;;;;;;11.75;53.10;101084.59;5050476;28;20037;-77
2022/04/12 06:55:25;;;;;;;0.10;0.10;;;;;;;11.85;52.76;101083.50;5053039;28;20554;-77
2022/04/12 06:57:52;;;;;;;0.40;0.40;;;;;;;11.95;53.01;101076.19;5053773;28;20037;-77
2022/04/12 07:00:19;;;;;;;0.10;0.10;;;;;;;12.08;52.44;101076.84;5053740;28;20083;-77
2022/04/12 07:02:46;;;;;;;0.10;0.10;;;;;;;12.17;52.92;101066.00;5053125;28;20487;-77
2022/04/12 07:05:12;;;;;;;0.50;0.50;;;;;;;12.27;52.42;101072.88;5051592;28;20021;-76
2022/04/12 07:07:40;;;;;;;3.83;0.80;;;;;;;12.37;52.59;101072.63;5051721;28;20040;-76
2022/04/12 07:10:09;;;;;;;0.08;0.08;;;;;;;12.48;51.90;101067.94;5052332;28;20033;-76
2022/04/12 07:12:36;;;;;;;0.00;0.00;;;;;;;12.57;51.70;101070.38;5052877;28;20025;-76
2022/04/12 07:15:02;;;;;;;0.10;0.10;;;;;;;12.68;51.77;101064.78;5053417;28;20036;-76
2022/04/12 07:17:29;;;;;;;0.10;0.10;;;;;;;12.77;51.44;101071.66;5053647;28;20053;-76
2022/04/12 07:19:55;;;;;;;0.35;0.35;;;;;;;12.85;51.80;101068.81;5058757;28;20107;-76
2022/04/12 07:22:21;;;;;;;0.10;0.10;;;;;;;12.98;50.94;101066.69;5052821;28;20036;-77
2022/04/12 07:24:48;;;;;;;0.40;0.40;;;;;;;13.00;51.79;101067.53;5051403;28;20056;-77
2022/04/12 07:27:14;;;;;;;0.22;0.22;;;;;;;13.12;51.56;101064.53;5050531;28;20351;-77
2022/04/12 07:29:40;;;;;;;0.35;0.35;;;;;;;13.20;50.98;101057.22;5053074;28;20032;-77
2022/04/12 07:32:07;;;;;;;0.45;0.45;;;;;;;13.31;51.07;101054.25;5053047;28;20041;-74
2022/04/12 07:34:33;;;;;;;0.10;0.10;;;;;;;13.43;50.36;101061.03;5053076;28;20071;-76
2022/04/12 07:36:59;;;;;;;0.10;0.10;;;;;;;13.54;50.52;101061.59;5053244;28;20040;-75
2022/04/12 07:39:25;;;;;;;0.00;0.00;;;;;;;13.68;50.11;101055.91;5053169;28;20098;-75
2022/04/12 07:41:52;;;;;;;1.52;1.40;;;;;;;13.73;50.63;101061.06;5051292;28;20039;-75
2022/04/12 07:44:20;;;;;;;0.25;0.25;;;;;;;13.81;49.43;101060.88;5051259;28;20032;-76
2022/04/12 07:46:46;;;;;;;0.10;0.10;;;;;;;13.85;49.64;101055.38;5050998;28;20382;-75
2022/04/12 07:49:13;;;;;;;0.10;0.10;;;;;;;14.01;50.09;101052.25;5050899;28;20029;-76
2022/04/12 07:51:41;;;;;;;0.17;0.17;;;;;;;14.09;49.82;101050.22;5051794;28;20025;-75
2022/04/12 07:54:07;;;;;;;0.03;0.03;;;;;;;14.10;49.51;101051.97;5052089;28;20056;-76
2022/04/12 07:56:34;;;;;;;0.08;0.08;;;;;;;14.20;49.34;101053.41;5063873;28;20037;-76
2022/04/12 07:59:01;;;;;;;0.10;0.10;;;;;;;14.31;48.76;101054.88;5065570;28;20369;-76
2022/04/12 08:01:27;;;;;;;0.10;0.10;;;;;;;14.40;49.09;101055.47;5067615;28;20024;-76
2022/04/12 08:03:53;;;;;;;0.00;0.00;;;;;;;14.52;48.75;101053.31;5048643;28;20032;-76
2022/04/12 08:06:19;;;;;;;0.80;0.80;;;;;;;14.60;49.09;101045.91;5051866;28;20041;-76
2022/04/12 08:08:45;;;;;;;0.00;0.00;;;;;;;14.70;49.05;101035.84;5047061;28;20029;-77
2022/04/12 08:11:12;;;;;;;0.00;0.00;;;;;;;14.84;48.83;101028.25;5049314;28;20032;-76
2022/04/12 08:13:39;;;;;;;0.00;0.00;;;;;;;14.91;48.41;101041.38;5052107;28;20501;-76
2022/04/12 08:16:05;;;;;;;0.57;0.57;;;;;;;15.06;48.36;101042.63;5049709;28;20080;-76
2022/04/12 08:18:32;;;;;;;0.15;0.15;;;;;;;15.12;47.96;101043.25;5047632;28;20032;-76
2022/04/12 08:20:58;;;;;;;0.40;0.40;;;;;;;15.17;47.48;101051.13;5043679;28;20120;-76
2022/04/12 08:23:24;;;;;;;0.00;0.00;;;;;;;15.29;46.99;101055.13;5046013;28;20086;-76
2022/04/12 08:25:51;;;;;;;0.10;0.10;;;;;;;15.42;47.51;101051.09;5043326;28;20045;-76
2022/04/12 08:28:18;;;;;;;0.05;0.05;;;;;;;15.56;47.08;101060.38;5047718;28;20036;-76
2022/04/12 08:30:44;;;;;;;0.05;0.05;;;;;;;15.70;47.38;101055.38;5051432;28;20031;-76
2022/04/12 08:33:10;;;;;;;0.10;0.10;;;;;;;15.77;47.59;101056.88;5050372;28;20082;-76
2022/04/12 08:35:36;;;;;;;0.00;0.00;;;;;;;15.89;47.41;101055.59;5050979;28;20024;-76
2022/04/12 08:38:02;;;;;;;0.10;0.10;;;;;;;15.95;46.76;101049.13;5050872;28;20032;-77
2022/04/12 08:40:29;;;;;;;0.00;0.00;;;;;;;16.05;46.43;101050.53;5054999;22;20041;-77
2022/04/12 08:42:57;;;;;;;0.00;0.00;;;;;;;16.07;46.00;101051.31;5049119;28;20076;-77
2022/04/12 08:45:25;;;;;;;0.10;0.10;;;;;;;16.19;46.16;101057.97;5051573;28;20103;-76
2022/04/12 08:47:51;;;;;;;0.10;0.10;;;;;;;16.21;46.08;101058.78;5050448;28;20521;-77
2022/04/12 08:50:20;;;;;;;0.10;0.10;;;;;;;16.34;45.21;101051.16;5046125;28;20108;-77
2022/04/12 08:52:47;;;;;;;0.10;0.10;;;;;;;16.46;45.46;101047.06;5036980;28;20025;-76
2022/04/12 08:55:13;;;;;;;0.30;0.30;;;;;;;16.63;45.68;101041.88;5040765;28;20020;-77
2022/04/12 08:57:40;;;;;;;0.10;0.10;;;;;;;16.77;45.61;101038.66;5042232;28;20044;-76
2022/04/12 09:00:07;;;;;;;0.25;0.25;;;;;;;16.88;45.52;101040.00;5032246;28;20036;-77
2022/04/12 09:02:34;;;;;;;0.80;0.75;;;;;;;17.02;44.06;101032.25;5048507;28;20025;-77
2022/04/12 09:05:00;;;;;;;0.10;0.10;;;;;;;17.16;44.11;101034.34;5042215;28;20078;-77
2022/04/12 09:07:27;;;;;;;0.25;0.22;;;;;;;17.31;44.42;101022.06;5052318;28;20041;-75
2022/04/12 09:10:06;;;;;;;1.65;1.17;;;;;;;17.48;44.74;101015.06;5056329;28;20036;-77
2022/04/12 09:12:35;;;;;;;0.08;0.08;;;;;;;17.45;42.30;101000.00;5060229;28;20640;-78
2022/04/12 09:15:02;;;;;;;0.10;0.10;;;;;;;17.53;43.27;101005.84;5061467;28;20051;-77
2022/04/12 09:20:20;;;;;;;0.10;0.10;;;;;;;17.74;43.46;101011.16;5110833;27;20418;-78
2022/04/12 09:22:47;;;;;;;0.00;0.00;;;;;;;17.83;43.06;101013.41;5103166;28;20040;-77
2022/04/12 09:25:15;;;;;;;0.13;0.13;;;;;;;17.93;43.80;101003.09;5102789;28;20036;-78
2022/04/12 09:27:44;;;;;;;0.90;0.90;;;;;;;18.04;42.93;101000.78;5099315;28;20028;-77
2022/04/12 09:30:13;;;;;;;0.15;0.15;;;;;;;18.17;43.22;100989.47;5095059;28;20060;-77
2022/04/12 09:32:41;;;;;;;0.30;0.30;;;;;;;18.26;43.02;100989.00;5093595;28;20024;-77
2022/04/12 09:35:08;;;;;;;0.00;0.00;;;;;;;18.33;42.48;100984.19;5093880;28;20103;-76
2022/04/12 09:37:37;;;;;;;0.00;0.00;;;;;;;18.42;42.69;100979.25;5095550;28;20024;-78
2022/04/12 09:40:07;;;;;;;0.45;0.32;;;;;;;18.58;43.30;100978.47;5100585;28;20220;-78
2022/04/12 09:45:19;;;;;;;0.75;0.70;;;;;;;18.78;41.85;100979.22;5019007;28;20704;-79
2022/04/12 09:47:47;;;;;;;0.10;0.10;;;;;;;18.84;41.21;100982.47;5018334;28;20042;-78
2022/04/12 09:50:21;;;;;;;0.08;0.08;;;;;;;19.00;41.99;100979.00;5018020;28;20034;-78
2022/04/12 09:53:05;;;;;;;0.00;0.00;;;;;;;19.28;42.04;100974.81;5013456;28;20113;-76
2022/04/12 09:55:49;;;;;;;0.32;0.32;;;;;;;19.38;42.56;100978.75;5005511;28;20028;-77
2022/04/12 09:58:17;;;;;;;0.10;0.10;;;;;;;19.48;41.63;100981.81;5003146;28;20038;-77
2022/04/12 10:00:47;;;;;;;0.45;0.45;;;;;;;19.58;41.52;100979.44;4997462;28;20034;-76
2022/04/12 10:03:16;;;;;;;0.15;0.15;;;;;;;19.66;41.32;100983.44;5006995;28;20480;-77
2022/04/12 10:05:43;;;;;;;0.70;0.70;;;;;;;19.82;40.88;100972.69;5013421;28;20113;-76
2022/04/12 10:08:10;;;;;;;0.10;0.10;;;;;;;19.94;42.49;100964.91;5011850;28;20034;-77
2022/04/12 10:10:40;;;;;;;0.10;0.10;;;;;;;20.06;41.06;100960.66;5011549;28;20400;-78
2022/04/12 10:13:06;;;;;;;0.15;0.15;;;;;;;20.15;40.47;100962.81;5011280;28;20119;-78
2022/04/12 10:15:32;;;;;;;0.13;0.13;;;;;;;20.24;39.78;100951.53;5009091;28;20120;-78
2022/04/12 10:17:59;;;;;;;0.30;0.30;;;;;;;20.39;41.42;100943.47;5007113;28;20027;-79
2022/04/12 10:20:25;;;;;;;0.10;0.10;;;;;;;20.48;41.30;100942.94;5008446;28;20069;-78
2022/04/12 10:22:51;;;;;;;0.35;0.35;;;;;;;20.62;42.13;100936.72;5009744;28;20675;-78
2022/04/12 10:25:21;;;;;;;0.00;0.00;;;;;;;20.75;40.29;100923.38;5029609;28;20046;-78
2022/04/12 10:27:49;;;;;;;2.00;1.00;;;;;;;20.80;40.90;100922.16;5010097;28;20071;-82
2022/04/12 10:33:17;;;;;;;0.00;0.00;;;;;;;20.85;40.70;100924.56;5074505;27;20130;-76
2022/04/12 10:38:23;;;;;;;0.00;0.00;;;;;;;20.61;39.92;100933.16;5085890;27;20365;-77
2022/04/12 10:40:54;;;;;;;0.00;0.00;;;;;;;20.68;40.53;100939.88;5084519;28;20032;-77
2022/04/12 10:43:33;;;;;;;0.00;0.00;;;;;;;20.72;40.63;100940.59;5088162;28;20091;-77
2022/04/12 10:46:02;;;;;;;0.08;0.08;;;;;;;20.61;40.09;100933.16;5098076;28;20096;-78
2022/04/12 10:48:30;;;;;;;0.00;0.00;;;;;;;20.71;40.10;100935.28;5093287;28;20876;-77
2022/04/12 10:51:00;;;;;;;1.88;0.80;;;;;;;20.77;40.94;100921.47;5079799;28;20485;-77
2022/04/12 10:56:15;;;;;;;0.10;0.10;;;;;;;21.04;40.87;100915.34;5071215;28;20390;-79
2022/04/12 10:58:43;;;;;;;1.20;1.10;;;;;;;21.15;40.85;100915.53;5056438;28;20048;-79
2022/04/12 11:01:26;;;;;;;0.65;0.63;;;;;;;21.20;41.54;100913.41;5049974;28;20033;-79
2022/04/12 11:03:53;;;;;;;0.00;0.00;;;;;;;21.28;41.15;100907.53;5030018;28;20042;-79
2022/04/12 11:09:15;;;;;;;0.10;0.10;;;;;;;21.39;40.04;100918.47;5106627;27;20389;-79
2022/04/12 11:11:44;;;;;;;0.30;0.30;;;;;;;21.45;40.80;100919.91;5100675;28;20036;-79
2022/04/12 11:14:32;;;;;;;0.30;0.25;;;;;;;21.47;39.55;100926.06;5094050;28;20077;-78
2022/04/12 11:17:08;;;;;;;0.47;0.47;;;;;;;21.46;39.15;100916.25;5092973;28;20047;-79
2022/04/12 11:19:56;;;;;;;0.10;0.10;;;;;;;21.62;39.78;100908.03;5075487;28;20079;-77
2022/04/12 11:22:23;;;;;;;0.00;0.00;;;;;;;21.71;40.75;100893.97;5070675;28;20107;-77
2022/04/12 11:25:13;;;;;;;0.10;0.10;;;;;;;21.95;39.42;100883.38;5093526;28;20039;-77
2022/04/12 11:27:39;;;;;;;0.10;0.10;;;;;;;21.92;38.50;100898.88;5109573;28;20058;-79
2022/04/12 11:30:05;;;;;;;0.00;0.00;;;;;;;21.98;38.50;100888.56;5112367;28;20070;-78
2022/04/12 11:32:32;;;;;;;0.13;0.13;;;;;;;22.00;38.64;100884.91;5097293;28;20021;-77
2022/04/12 11:34:59;;;;;;;0.10;0.10;;;;;;;22.03;38.91;100884.69;5104540;28;20086;-78
2022/04/12 11:37:25;;;;;;;0.20;0.20;;;;;;;22.08;39.59;100882.53;5103645;28;20042;-79
2022/04/12 11:39:51;;;;;;;0.20;0.20;;;;;;;22.23;39.73;100895.00;5100769;28;20037;-79
2022/04/12 11:42:17;;;;;;;0.10;0.10;;;;;;;22.36;39.07;100894.16;5088958;28;20032;-79
2022/04/12 11:44:54;;;;;;;1.88;0.73;;;;;;;22.59;39.87;100892.56;5095982;28;20121;-78
2022/04/12 11:47:25;;;;;;;1.85;1.60;;;;;;;22.75;38.48;100886.97;5077699;28;20057;-78